Latest Weather Observations for Pirlangimpi

IDD60801

Issued at 11:01 pm CST Monday 27 April 2015 (issued every 30 minutes, with the page automatically refreshed every 10 minutes)

About weather observations | Map of weather stations | Latest weather observations for NT | Other Formats
Station Details ID: 014142 Name: PIRLANGIMPI AIRPORT Lat: -11.40 Lon: 130.42 Height: 18.3 m
Data from the previous 72 hours. | See also: Recent months at Pirlangimpi
Date/Time
CST
Temp
°C
App
Temp
°C
Dew
Point
Rel
Hum
%
Delta-T
°C
Wind Press
QNH
hPa
Press
MSL
hPa
Rain
since 9 am
mm
Dir
 
Spd
km/h
Gust
km/h
Spd
kts
Gust
kts
27/11:00pm 22.8 25.5 19.4 81 2.2 ESE 4 4 2 2 1013.7 1013.6 0.0
27/10:30pm 22.9 25.6 19.5 81 2.2 ESE 4 4 2 2 1013.9 1013.8 0.0
27/10:00pm 23.4 26.2 18.9 76 2.9 ESE 2 2 1 1 1014.1 1014.0 0.0
27/09:30pm 24.4 27.3 19.0 72 3.4 ESE 2 4 1 2 1014.1 1014.0 0.0
27/09:00pm 25.2 27.4 19.1 69 3.9 ESE 6 9 3 5 1013.8 1013.7 0.0
27/08:30pm 25.3 27.7 19.7 71 3.6 ESE 6 9 3 5 1013.4 1013.3 0.0
27/08:00pm 23.6 27.0 20.1 81 2.3 E 2 6 1 3 1013.3 1013.2 0.0
27/07:30pm 23.9 27.5 19.8 78 2.6 CALM 0 0 0 0 1013.0 1012.9 0.0
27/07:00pm 24.5 28.1 19.8 75 3.0 CALM 0 0 0 0 1012.8 1012.7 0.0
27/06:30pm 25.4 28.9 19.5 70 3.8 CALM 0 0 0 0 1012.5 1012.4 0.0
27/06:00pm 26.3 30.0 19.9 68 4.2 CALM 0 2 0 1 1012.2 1012.1 0.0
27/05:30pm 27.9 31.2 19.9 61 5.2 E 2 4 1 2 1011.9 1011.8 0.0
27/05:00pm 30.0 31.2 16.8 45 8.3 ESE 6 7 3 4 1011.1 1011.0 0.0
27/04:30pm 31.0 31.2 15.8 40 9.5 E 9 13 5 7 1010.7 1010.6 0.0
27/04:00pm 31.2 30.7 14.8 37 10.0 E 11 15 6 8 1010.5 1010.4 0.0
27/03:30pm 31.2 30.9 14.4 36 10.2 ESE 9 17 5 9 1010.7 1010.6 0.0
27/03:00pm 31.7 32.2 15.6 37 10.0 E 7 13 4 7 1010.9 1010.8 0.0
27/02:30pm 31.9 31.4 15.0 36 10.4 E 11 19 6 10 1011.0 1010.9 0.0
27/02:00pm 31.3 29.9 14.4 35 10.3 ESE 15 24 8 13 1011.3 1011.2 0.0
27/01:30pm 31.8 31.1 15.3 37 10.2 ESE 13 24 7 13 1011.6 1011.5 0.0
27/01:00pm 31.1 30.4 15.5 39 9.7 ESE 13 20 7 11 1012.1 1012.0 0.0
27/12:30pm 30.7 29.3 13.5 35 10.3 ESE 13 22 7 12 1012.6 1012.5 0.0
27/12:00pm 30.1 28.6 14.2 38 9.6 SE 15 20 8 11 1013.0 1012.9 0.0
27/11:30am 30.1 30.2 16.5 44 8.5 SE 11 17 6 9 1013.3 1013.2 0.0
27/11:00am 29.1 29.4 17.0 48 7.6 SE 11 19 6 10 1013.4 1013.3 0.0
27/10:30am 27.9 28.1 17.7 53 6.5 SE 13 22 7 12 1013.6 1013.5 0.0
27/10:00am 27.0 27.3 17.8 57 5.8 SE 13 20 7 11 1013.8 1013.7 0.0
27/09:30am 26.3 27.7 18.7 63 4.9 SE 9 17 5 9 1013.7 1013.6 0.0
27/09:00am 24.7 26.4 18.6 69 3.9 SE 7 13 4 7 1013.8 1013.7 0.0
27/08:30am 23.4 24.9 18.1 72 3.3 SE 7 13 4 7 1013.6 1013.5 0.0
27/08:00am 22.6 24.2 17.9 75 2.9 SE 6 9 3 5 1013.5 1013.4 0.0
27/07:30am 21.4 23.0 17.8 80 2.2 SSE 6 9 3 5 1013.1 1013.0 0.0
27/07:00am 20.4 21.9 17.6 84 1.7 SSE 6 9 3 5 1012.4 1012.3 0.0
27/06:30am 20.6 22.2 16.8 79 2.3 ESE 4 6 2 3 1012.0 1011.9 0.0
27/06:00am 21.6 23.2 16.8 74 2.9 SE 4 6 2 3 1011.7 1011.6 0.0
27/05:30am 22.5 23.7 16.8 70 3.5 SE 6 9 3 5 1011.6 1011.5 0.0
27/05:00am 22.9 24.3 17.4 71 3.4 SSE 6 9 3 5 1011.6 1011.5 0.0
27/04:30am 22.7 24.5 18.3 76 2.8 SSE 6 9 3 5 1011.7 1011.6 0.0
27/04:00am 22.4 24.2 18.4 78 2.5 SSE 6 7 3 4 1011.7 1011.6 0.0
27/03:30am 22.0 24.7 19.5 86 1.6 SE 4 7 2 4 1011.7 1011.6 0.0
27/03:00am 22.0 25.0 20.1 89 1.2 SSE 4 6 2 3 1011.8 1011.7 0.0
27/02:30am 21.7 24.7 20.0 90 1.1 SE 4 7 2 4 1011.8 1011.7 0.0
27/02:00am 21.9 24.7 20.4 91 1.0 SE 6 6 3 3 1012.0 1011.9 0.0
27/01:30am 21.5 24.2 20.3 93 0.8 SE 6 7 3 4 1012.3 1012.2 0.0
27/01:00am 20.5 23.1 19.3 93 0.8 SE 4 6 2 3 1012.3 1012.2 0.0
27/12:30am 20.5 23.1 19.2 92 0.8 ESE 4 4 2 2 1012.6 1012.5 0.0
27/12:00am 20.7 24.0 19.2 91 0.9 CALM 0 0 0 0 1012.9 1012.8 0.0
 
Date/Time
CST
Temp
°C
App
Temp
°C
Dew
Point
Rel
Hum
%
Delta-T
°C
Wind Press
QNH
hPa
Press
MSL
hPa
Rain
since 9 am
mm
Dir
 
Spd
km/h
Gust
km/h
Spd
kts
Gust
kts
26/11:30pm 20.8 24.2 19.3 91 0.9 CALM 0 0 0 0 1013.1 1013.0 0.0
26/11:00pm 21.0 24.5 19.5 91 1.0 CALM 0 0 0 0 1013.2 1013.1 0.0
26/10:30pm 21.4 25.0 19.7 90 1.1 CALM 0 0 0 0 1013.3 1013.2 0.0
26/10:00pm 21.7 25.3 19.8 89 1.2 CALM 0 0 0 0 1013.5 1013.4 0.0
26/09:30pm 21.8 24.5 19.5 87 1.5 E 4 6 2 3 1013.5 1013.4 0.0
26/09:00pm 22.3 25.7 20.2 88 1.4 E 2 4 1 2 1013.6 1013.5 0.0
26/08:30pm 22.6 26.4 20.1 86 1.6 CALM 0 0 0 0 1013.4 1013.3 0.0
26/08:00pm 23.0 26.8 20.1 84 1.9 CALM 0 0 0 0 1013.0 1012.9 0.0
26/07:30pm 23.6 27.3 19.9 80 2.4 CALM 0 0 0 0 1012.6 1012.5 0.0
26/07:00pm 25.1 28.0 19.9 73 3.4 ESE 4 4 2 2 1012.1 1012.0 0.0
26/06:30pm 26.3 29.2 19.9 68 4.2 ESE 4 6 2 3 1011.7 1011.6 0.0
26/06:00pm 27.4 30.0 19.2 61 5.3 SE 4 6 2 3 1011.4 1011.3 0.0
26/05:30pm 28.5 30.7 19.2 57 6.0 ESE 6 7 3 4 1011.0 1010.9 0.0
26/05:00pm 29.4 30.3 17.6 49 7.5 ESE 9 17 5 9 1010.8 1010.7 0.0
26/04:30pm 30.3 30.6 17.0 44 8.4 E 11 19 6 10 1010.5 1010.4 0.0
26/04:00pm 31.2 31.5 17.1 42 8.9 E 11 19 6 10 1010.5 1010.4 0.0
26/03:30pm 31.7 31.4 16.4 39 9.6 E 13 19 7 10 1010.6 1010.5 0.0
26/03:00pm 32.1 31.9 16.8 40 9.7 E 13 22 7 12 1010.6 1010.5 0.0
26/02:30pm 32.2 31.6 15.7 37 10.3 E 13 28 7 15 1010.8 1010.7 0.0
26/02:00pm 32.3 31.8 17.7 41 9.4 E 17 24 9 13 1011.0 1010.9 0.0
26/01:30pm 32.3 32.5 17.7 41 9.4 ESE 13 26 7 14 1011.2 1011.1 0.0
26/01:00pm 32.5 32.8 17.9 41 9.4 E 13 24 7 13 1011.6 1011.5 0.0
26/12:30pm 32.1 33.1 19.4 47 8.3 ESE 13 20 7 11 1011.9 1011.8 0.0
26/12:00pm 31.5 32.7 19.8 49 7.7 ESE 13 20 7 11 1012.3 1012.2 0.0
26/11:30am 30.8 32.5 20.1 53 7.1 E 11 20 6 11 1012.6 1012.5 0.0
26/11:00am 30.3 32.9 21.9 60 5.7 E 11 17 6 9 1013.0 1012.9 0.0
26/10:30am 29.3 32.2 21.8 64 5.0 ESE 9 17 5 9 1013.1 1013.0 0.0
26/10:00am 29.3 33.3 22.8 68 4.4 E 6 9 3 5 1013.0 1012.9 0.0
26/09:30am 28.2 31.7 22.9 73 3.6 E 9 13 5 7 1012.9 1012.8 0.0
26/09:00am 26.7 30.3 23.0 80 2.5 E 9 13 5 7 1012.5 1012.4 0.2
26/08:30am 25.5 29.4 23.0 86 1.7 E 7 11 4 6 1012.2 1012.1 0.2
26/08:00am 24.3 28.4 23.3 94 0.7 E 7 9 4 5 1012.0 1011.9 0.2
26/07:30am 22.6 25.9 21.9 96 0.5 ENE 7 9 4 5 1011.9 1011.8 0.2
26/07:00am 22.1 25.0 21.1 94 0.7 ENE 7 9 4 5 1011.5 1011.4 0.2
26/06:30am 22.4 25.4 21.2 93 0.8 ENE 7 11 4 6 1011.2 1011.1 0.2
26/06:00am 22.6 26.0 21.6 94 0.7 E 6 9 3 5 1011.2 1011.1 0.2
26/05:30am 23.0 27.0 22.0 94 0.7 ENE 4 6 2 3 1011.0 1010.9 0.2
26/05:00am 23.2 28.0 22.2 94 0.7 CALM 0 4 0 2 1010.9 1010.8 0.2
26/04:30am 23.4 28.3 22.4 94 0.7 CALM 0 0 0 0 1010.9 1010.8 0.2
26/04:00am 23.7 28.7 22.5 93 0.8 CALM 0 0 0 0 1011.1 1011.0 0.2
26/03:30am 24.1 29.4 23.1 94 0.7 CALM 0 0 0 0 1011.1 1011.0 0.2
26/03:00am 24.6 29.6 23.9 96 0.5 SE 4 4 2 2 1011.1 1011.0 0.2
26/02:30am 24.6 29.3 23.9 96 0.5 SE 6 7 3 4 1011.2 1011.1 0.2
26/02:00am 23.9 28.8 23.0 95 0.6 SE 2 4 1 2 1011.5 1011.4 0.2
26/01:30am 23.6 28.3 22.6 94 0.7 E 2 4 1 2 1011.6 1011.5 0.2
26/01:00am 23.6 28.4 22.2 92 0.9 CALM 0 0 0 0 1011.9 1011.8 0.2
26/12:30am 23.7 28.7 22.5 93 0.8 CALM 0 0 0 0 1011.9 1011.8 0.2
26/12:00am 23.9 28.6 22.7 93 0.8 NE 2 2 1 1 1011.7 1011.6 0.2
 
Date/Time
CST
Temp
°C
App
Temp
°C
Dew
Point
Rel
Hum
%
Delta-T
°C
Wind Press
QNH
hPa
Press
MSL
hPa
Rain
since 9 am
mm
Dir
 
Spd
km/h
Gust
km/h
Spd
kts
Gust
kts
25/11:30pm 24.0 28.8 22.8 93 0.8 NE 2 4 1 2 1011.4 1011.3 0.2
25/11:00pm 24.2 29.5 23.0 93 0.8 CALM 0 0 0 0 1011.6 1011.5 0.2
25/10:30pm 24.3 29.5 22.9 92 0.9 CALM 0 0 0 0 1011.7 1011.6 0.2
25/10:00pm 24.4 29.7 23.0 92 0.9 CALM 0 0 0 0 1011.7 1011.6 0.2
25/09:30pm 24.6 29.9 23.0 91 1.1 CALM 0 0 0 0 1011.6 1011.5 0.2
25/09:00pm 24.6 29.8 22.8 90 1.2 CALM 0 0 0 0 1011.5 1011.4 0.2
25/08:30pm 24.6 29.7 22.7 89 1.3 CALM 0 0 0 0 1011.4 1011.3 0.2
25/08:00pm 25.1 30.4 23.0 88 1.4 CALM 0 0 0 0 1011.0 1010.9 0.2
25/07:30pm 25.7 31.0 23.0 85 1.8 CALM 0 0 0 0 1010.6 1010.5 0.2
25/07:00pm 26.5 31.8 23.0 81 2.4 CALM 0 0 0 0 1010.3 1010.2 0.2
25/06:30pm 27.8 32.4 23.2 76 3.1 ENE 4 6 2 3 1009.7 1009.6 0.2
25/06:00pm 28.8 34.0 23.5 73 3.6 NNE 2 6 1 3 1009.3 1009.2 0.2
25/05:30pm 30.4 34.5 23.3 66 4.9 NE 7 11 4 6 1008.9 1008.8 0.2
25/05:00pm 31.5 34.7 23.1 61 5.8 ENE 11 17 6 9 1008.6 1008.5 0.2
25/04:30pm 31.9 36.1 23.4 60 5.9 NNE 7 13 4 7 1008.5 1008.4 0.2
25/04:00pm 32.7 37.5 24.2 61 5.9 NNE 6 13 3 7 1008.2 1008.1 0.2
25/03:30pm 32.8 37.5 24.0 60 6.2 NNE 6 11 3 6 1008.2 1008.1 0.2
25/03:00pm 33.1 37.5 23.4 56 6.7 NNE 6 13 3 7 1008.4 1008.3 0.2
25/02:30pm 33.3 37.1 22.7 53 7.3 NNE 7 15 4 8 1008.7 1008.6 0.2
25/02:00pm 33.1 36.9 22.8 54 7.1 NE 7 17 4 9 1009.2 1009.1 0.2
25/01:30pm 33.2 37.4 23.5 56 6.7 NE 7 17 4 9 1009.5 1009.4 0.2
25/01:00pm 32.7 36.8 23.3 57 6.5 NE 7 17 4 9 1009.7 1009.6 0.2
25/12:30pm 32.5 36.1 23.7 59 6.1 NE 11 20 6 11 1010.1 1010.0 0.2
25/12:00pm 31.8 36.7 24.7 66 5.0 ENE 7 13 4 7 1010.3 1010.2 0.0
25/11:30am 30.3 34.4 23.2 65 4.9 E 7 11 4 6 1010.8 1010.7 0.0
25/11:00am 31.7 37.1 25.1 68 4.7 E 6 11 3 6 1011.1 1011.0 0.0
25/10:30am 30.6 37.1 25.7 75 3.5 E 2 6 1 3 1011.4 1011.3 0.0
25/10:00am 30.3 36.5 25.8 77 3.2 E 4 9 2 5 1011.4 1011.3 0.0
25/09:30am 29.1 35.1 24.9 78 2.9 ENE 2 6 1 3 1011.2 1011.1 0.0
25/09:00am 27.6 33.8 25.8 90 1.3 ESE 4 6 2 3 1010.7 1010.6 1.6
25/08:30am 26.3 32.4 25.6 96 0.5 ESE 4 4 2 2 1010.5 1010.4 1.6
25/08:00am 25.3 31.6 24.8 97 0.3 CALM 0 2 0 1 1010.4 1010.3 1.6
25/07:30am 24.1 29.6 23.4 96 0.5 CALM 0 0 0 0 1010.2 1010.1 1.6
25/07:00am 23.8 29.1 23.0 95 0.5 CALM 0 0 0 0 1010.1 1010.0 1.6
25/06:30am 23.9 29.2 23.0 95 0.6 CALM 0 0 0 0 1009.7 1009.6 1.6
25/06:00am 23.9 29.1 22.9 94 0.7 CALM 0 0 0 0 1009.5 1009.4 1.6
25/05:30am 24.0 29.3 23.0 94 0.7 CALM 0 0 0 0 1009.5 1009.4 1.6
25/05:00am 24.1 29.4 23.1 94 0.7 CALM 0 0 0 0 1009.5 1009.4 1.6
25/04:30am 24.1 29.4 23.1 94 0.7 CALM 0 0 0 0 1009.5 1009.4 1.6
25/04:00am 24.2 29.6 23.2 94 0.7 CALM 0 0 0 0 1009.7 1009.6 1.6
25/03:30am 24.2 29.6 23.2 94 0.7 CALM 0 2 0 1 1009.8 1009.7 1.6
25/03:00am 24.4 30.0 23.5 95 0.6 CALM 0 0 0 0 1009.8 1009.7 1.6
25/02:30am 24.5 30.1 23.5 94 0.7 CALM 0 0 0 0 1010.0 1009.9 1.6
25/02:00am 24.6 30.2 23.6 94 0.7 CALM 0 0 0 0 1010.1 1010.0 1.6
25/01:30am 24.7 30.4 23.7 94 0.7 CALM 0 0 0 0 1010.2 1010.1 1.6
25/01:00am 24.8 30.5 23.8 94 0.7 CALM 0 0 0 0 1010.7 1010.6 1.6
25/12:30am 24.7 30.3 23.5 93 0.8 CALM 0 0 0 0 1010.7 1010.6 1.6
25/12:00am 24.7 30.3 23.5 93 0.8 CALM 0 0 0 0 1010.6 1010.5 1.6
 
Date/Time
CST
Temp
°C
App
Temp
°C
Dew
Point
Rel
Hum
%
Delta-T
°C
Wind Press
QNH
hPa
Press
MSL
hPa
Rain
since 9 am
mm
Dir
 
Spd
km/h
Gust
km/h
Spd
kts
Gust
kts
24/11:30pm 24.6 30.1 23.4 93 0.8 CALM 0 0 0 0 1010.8 1010.7 1.6

Other Formats:

Comma delimited format used in spreadsheet applications
http://www.bom.gov.au/fwo/IDD60801/IDD60801.94119.axf

JavaScript Object Notation format (JSON) in row-major order
http://www.bom.gov.au/fwo/IDD60801/IDD60801.94119.json